createdAt,value
2022-09-15T00:01:24.687Z,97931.91
2022-09-15T00:03:56.480Z,97937.50
2022-09-15T00:06:32.791Z,97940.19
2022-09-15T00:09:04.681Z,97927.91
2022-09-15T00:11:40.993Z,97939.16
2022-09-15T00:14:12.703Z,97924.13
2022-09-15T00:16:44.348Z,97932.16
2022-09-15T00:19:17.960Z,97930.03
2022-09-15T00:21:49.554Z,97932.97
2022-09-15T00:24:21.302Z,97933.28
2022-09-15T00:26:52.876Z,97926.91
2022-09-15T00:29:24.523Z,97933.84
2022-09-15T00:31:56.219Z,97939.72
2022-09-15T00:34:30.965Z,97949.63
2022-09-15T00:37:02.644Z,97947.75
2022-09-15T00:39:34.633Z,97942.38
2022-09-15T00:42:07.521Z,97948.25
2022-09-15T00:44:58.326Z,97945.84
2022-09-15T00:47:40.772Z,97942.88
2022-09-15T00:50:16.674Z,97945.03
2022-09-15T00:53:00.468Z,97943.69
2022-09-15T00:55:36.061Z,97950.97
2022-09-15T00:58:11.878Z,97951.50
2022-09-15T01:00:55.551Z,97947.78
2022-09-15T01:03:32.633Z,97954.50
2022-09-15T01:06:12.048Z,97946.16
2022-09-15T01:08:51.411Z,97954.47
2022-09-15T01:11:23.122Z,97943.50
2022-09-15T01:13:55.058Z,97948.66
2022-09-15T01:16:51.563Z,97944.84
2022-09-15T01:19:49.785Z,97961.41
2022-09-15T01:22:59.986Z,97959.31
2022-09-15T01:26:02.770Z,97954.75
2022-09-15T01:29:01.917Z,97960.59
2022-09-15T01:32:05.770Z,97964.88
2022-09-15T01:34:44.551Z,97966.69
2022-09-15T01:37:21.156Z,97965.59
2022-09-15T01:39:54.459Z,97976.06
2022-09-15T01:42:28.608Z,97978.66
2022-09-15T01:45:08.936Z,97991.19
2022-09-15T01:47:41.972Z,97992.56
2022-09-15T01:50:18.924Z,98000.81
2022-09-15T01:52:54.603Z,98003.06
2022-09-15T01:55:41.446Z,98001.34
2022-09-15T01:58:13.091Z,97997.28
2022-09-15T02:00:49.996Z,98002.53
2022-09-15T02:03:32.102Z,98004.41
2022-09-15T02:06:15.860Z,97994.03
2022-09-15T02:09:03.066Z,97998.53
2022-09-15T02:11:36.845Z,97998.81
2022-09-15T02:14:17.371Z,98000.44
2022-09-15T02:16:52.792Z,98003.91
2022-09-15T02:19:41.825Z,98010.75
2022-09-15T02:22:23.578Z,98005.69
2022-09-15T02:25:05.769Z,98005.63
2022-09-15T02:27:44.659Z,97998.66
2022-09-15T02:30:19.677Z,98007.78
2022-09-15T02:33:00.840Z,98000.00
2022-09-15T02:35:36.312Z,97998.63
2022-09-15T02:38:09.990Z,97998.88
2022-09-15T02:40:43.752Z,97996.25
2022-09-15T02:43:17.837Z,98000.72
2022-09-15T02:45:49.830Z,98002.25
2022-09-15T02:48:22.136Z,98010.25
2022-09-15T02:50:53.791Z,98011.84
2022-09-15T02:53:25.469Z,98001.91
2022-09-15T02:55:57.969Z,98011.16
2022-09-15T02:58:29.928Z,98008.81
2022-09-15T03:01:04.305Z,98013.34
2022-09-15T03:03:37.902Z,98009.81
2022-09-15T03:06:18.481Z,98024.16
2022-09-15T03:08:53.134Z,98030.63
2022-09-15T03:11:26.897Z,98031.13
2022-09-15T03:14:07.990Z,98028.94
2022-09-15T03:16:40.221Z,98017.16
2022-09-15T03:19:12.381Z,98025.63
2022-09-15T03:21:44.023Z,98020.88
2022-09-15T03:24:15.883Z,98026.50
2022-09-15T03:26:48.539Z,98038.56
2022-09-15T03:29:20.219Z,98030.56
2022-09-15T03:31:52.376Z,98038.34
2022-09-15T03:34:23.998Z,98035.91
2022-09-15T03:36:55.617Z,98042.81
2022-09-15T03:39:27.241Z,98046.81
2022-09-15T03:41:58.945Z,98047.63
2022-09-15T03:44:32.263Z,98048.22
2022-09-15T03:47:04.090Z,98054.91
2022-09-15T03:49:35.769Z,98044.50
2022-09-15T03:52:07.385Z,98051.38
2022-09-15T03:54:39.915Z,98054.84
2022-09-15T03:57:11.563Z,98053.97
2022-09-15T03:59:43.251Z,98052.34
2022-09-15T04:02:14.999Z,98054.53
2022-09-15T04:04:49.305Z,98058.09
2022-09-15T04:07:23.832Z,98063.19
2022-09-15T04:09:55.302Z,98063.72
2022-09-15T04:12:28.602Z,98056.53
2022-09-15T04:15:00.870Z,98054.91
2022-09-15T04:17:32.774Z,98063.72
2022-09-15T04:20:04.625Z,98055.72
2022-09-15T04:22:36.358Z,98058.72
2022-09-15T04:25:09.344Z,98058.47
2022-09-15T04:27:41.018Z,98058.47
2022-09-15T04:30:16.709Z,98054.19
2022-09-15T04:32:48.789Z,98056.06
2022-09-15T04:35:22.064Z,98060.59
2022-09-15T04:37:54.646Z,98067.28
2022-09-15T04:40:26.343Z,98058.56
2022-09-15T04:42:58.231Z,98066.59
2022-09-15T04:45:29.856Z,98066.50
2022-09-15T04:48:01.601Z,98070.00
2022-09-15T04:50:34.009Z,98070.06
2022-09-15T04:53:07.328Z,98074.94
2022-09-15T04:55:39.441Z,98070.06
2022-09-15T04:58:13.202Z,98072.44
2022-09-15T05:00:44.873Z,98073.66
2022-09-15T05:03:16.540Z,98077.06
2022-09-15T05:05:48.286Z,98076.25
2022-09-15T05:08:19.924Z,98080.84
2022-09-15T05:10:51.594Z,98072.13
2022-09-15T05:13:23.211Z,98080.22
2022-09-15T05:15:54.990Z,98072.75
2022-09-15T05:18:26.593Z,98068.19
2022-09-15T05:20:59.857Z,98060.75
2022-09-15T05:23:33.150Z,98061.56
2022-09-15T05:26:11.856Z,98072.25
2022-09-15T05:28:43.734Z,98066.41
2022-09-15T05:31:21.477Z,98068.19
2022-09-15T05:33:53.625Z,98069.88
2022-09-15T05:36:25.586Z,98065.41
2022-09-15T05:38:57.821Z,98066.81
2022-09-15T05:41:29.835Z,98073.13
2022-09-15T05:44:01.649Z,98075.50
2022-09-15T05:46:34.382Z,98077.38
2022-09-15T05:49:07.291Z,98076.38
2022-09-15T05:51:39.216Z,98066.81
2022-09-15T05:54:10.817Z,98055.31
2022-09-15T05:56:44.574Z,98058.97
2022-09-15T05:59:16.223Z,98058.16
2022-09-15T06:01:48.050Z,98061.06
2022-09-15T06:04:19.745Z,98069.16
2022-09-15T06:06:51.392Z,98066.97
2022-09-15T06:09:23.073Z,98067.84
2022-09-15T06:11:57.402Z,98074.88
2022-09-15T06:14:28.960Z,98080.09
2022-09-15T06:17:00.575Z,98088.75
2022-09-15T06:19:33.423Z,98088.88
2022-09-15T06:22:05.041Z,98090.78
2022-09-15T06:24:36.617Z,98088.72
2022-09-15T06:27:08.225Z,98088.88
2022-09-15T06:29:39.950Z,98101.19
2022-09-15T06:32:11.625Z,98093.50
2022-09-15T06:34:43.269Z,98097.47
2022-09-15T06:37:15.862Z,98076.63
2022-09-15T06:39:49.748Z,98077.97
2022-09-15T06:42:21.467Z,98092.34
2022-09-15T06:44:53.153Z,98099.66
2022-09-15T06:47:24.798Z,98090.91
2022-09-15T06:49:56.475Z,98096.06
2022-09-15T06:52:28.140Z,98095.88
2022-09-15T06:55:00.088Z,98102.31
2022-09-15T06:57:31.759Z,98101.88
2022-09-15T07:00:05.290Z,98105.22
2022-09-15T07:02:36.976Z,98103.63
2022-09-15T07:05:10.940Z,98104.72
2022-09-15T07:07:42.795Z,98113.28
2022-09-15T07:10:14.396Z,98112.72
2022-09-15T07:12:46.304Z,98110.84
2022-09-15T07:15:17.950Z,98108.41
2022-09-15T07:17:49.565Z,98110.56
2022-09-15T07:20:24.193Z,98114.75
2022-09-15T07:22:55.867Z,98110.72
2022-09-15T07:25:27.443Z,98112.25
2022-09-15T07:27:59.099Z,98110.34
2022-09-15T07:30:30.689Z,98119.28
2022-09-15T07:33:02.319Z,98119.72
2022-09-15T07:35:34.479Z,98122.63
2022-09-15T07:38:06.135Z,98125.53
2022-09-15T07:40:38.431Z,98129.72
2022-09-15T07:43:10.201Z,98130.72
2022-09-15T07:45:42.487Z,98129.72
2022-09-15T07:48:14.173Z,98134.56
2022-09-15T07:50:46.987Z,98133.78
2022-09-15T07:53:18.568Z,98138.78
2022-09-15T07:55:53.645Z,98140.41
2022-09-15T07:58:25.540Z,98147.72
2022-09-15T08:01:05.191Z,98141.78
2022-09-15T08:03:40.801Z,98127.28
2022-09-15T08:06:13.411Z,98112.38
2022-09-15T08:08:45.687Z,98119.28
2022-09-15T08:11:19.691Z,98117.03
2022-09-15T08:13:52.495Z,98117.16
2022-09-15T08:16:24.863Z,98114.66
2022-09-15T08:18:56.891Z,98120.00
2022-09-15T08:21:31.786Z,98128.44
2022-09-15T08:24:06.502Z,98147.22
2022-09-15T08:26:38.522Z,98161.97
2022-09-15T08:29:10.138Z,98169.88
2022-09-15T08:31:43.032Z,98171.50
2022-09-15T08:34:16.550Z,98173.44
2022-09-15T08:36:48.234Z,98178.09
2022-09-15T08:39:19.887Z,98187.00
2022-09-15T08:41:53.987Z,98192.88
2022-09-15T08:44:44.788Z,98196.72
2022-09-15T08:47:43.150Z,98201.84
2022-09-15T08:50:27.309Z,98202.41
2022-09-15T08:53:06.648Z,98198.22
2022-09-15T08:55:45.556Z,98196.41
2022-09-15T08:58:23.199Z,98198.09
2022-09-15T09:01:26.890Z,98200.19
2022-09-15T09:04:22.503Z,98195.78
2022-09-15T09:07:24.970Z,98191.84
2022-09-15T09:10:15.811Z,98191.34
2022-09-15T09:12:52.963Z,98192.41
2022-09-15T09:15:24.599Z,98188.22
2022-09-15T09:18:02.254Z,98182.53
2022-09-15T09:20:36.530Z,98178.31
2022-09-15T09:23:14.578Z,98181.66
2022-09-15T09:25:47.145Z,98182.31
2022-09-15T09:29:00.399Z,98181.78
2022-09-15T09:31:36.087Z,98174.50
2022-09-15T09:34:22.343Z,98175.44
2022-09-15T09:37:08.654Z,98155.19
2022-09-15T09:39:40.387Z,98168.97
2022-09-15T09:42:16.201Z,98165.38
2022-09-15T09:44:47.878Z,98166.59
2022-09-15T09:47:20.565Z,98173.00
2022-09-15T09:49:52.351Z,98169.28
2022-09-15T09:52:38.467Z,98174.03
2022-09-15T09:55:30.307Z,98167.56
2022-09-15T09:58:14.543Z,98175.94
2022-09-15T10:00:47.324Z,98179.66
2022-09-15T10:03:32.171Z,98170.94
2022-09-15T10:06:15.903Z,98172.06
2022-09-15T10:09:05.216Z,98171.41
2022-09-15T10:12:00.100Z,98176.53
2022-09-15T10:14:42.137Z,98180.91
2022-09-15T10:17:15.649Z,98186.31
2022-09-15T10:19:54.233Z,98192.56
2022-09-15T10:22:33.788Z,98195.44
2022-09-15T10:25:20.498Z,98189.75
2022-09-15T10:28:14.129Z,98187.00
2022-09-15T10:31:29.547Z,98190.63
2022-09-15T10:34:25.313Z,98189.41
2022-09-15T10:37:15.198Z,98208.47
2022-09-15T10:39:52.355Z,98198.94
2022-09-15T10:42:46.103Z,98199.28
2022-09-15T10:45:34.220Z,98197.50
2022-09-15T10:48:14.875Z,98168.72
2022-09-15T10:50:54.636Z,98159.91
2022-09-15T10:53:41.532Z,98166.06
2022-09-15T10:56:38.902Z,98167.34
2022-09-15T10:59:23.793Z,98179.78
2022-09-15T11:02:01.416Z,98181.63
2022-09-15T11:04:49.692Z,98184.06
2022-09-15T11:07:46.282Z,98168.06
2022-09-15T11:10:31.996Z,98157.16
2022-09-15T11:13:17.427Z,98152.84
2022-09-15T11:16:11.916Z,98184.94
2022-09-15T11:18:55.429Z,98198.69
2022-09-15T11:21:35.127Z,98199.28
2022-09-15T11:24:28.386Z,98199.28
2022-09-15T11:27:11.353Z,98186.34
2022-09-15T11:30:01.209Z,98199.63
2022-09-15T11:32:40.022Z,98199.16
2022-09-15T11:35:33.284Z,98191.66
2022-09-15T11:38:13.038Z,98199.47
2022-09-15T11:40:52.751Z,98198.59
2022-09-15T11:43:37.714Z,98201.16
2022-09-15T11:46:13.540Z,98203.56
2022-09-15T11:48:56.531Z,98205.25
2022-09-15T11:51:34.974Z,98214.72
2022-09-15T11:54:13.784Z,98213.00
2022-09-15T11:56:47.403Z,98221.19
2022-09-15T11:59:29.266Z,98213.88
2022-09-15T12:02:24.657Z,98217.13
2022-09-15T12:05:11.967Z,98215.75
2022-09-15T12:08:06.761Z,98215.13
2022-09-15T12:10:43.414Z,98214.97
2022-09-15T12:13:19.947Z,98213.69
2022-09-15T12:15:53.463Z,98214.72
2022-09-15T12:18:41.973Z,98218.06
2022-09-15T12:21:27.832Z,98221.03
2022-09-15T12:24:58.877Z,98218.94
2022-09-15T12:28:03.661Z,98231.56
2022-09-15T12:30:43.326Z,98232.38
2022-09-15T12:34:30.051Z,98230.19
2022-09-15T12:37:19.617Z,98222.09
2022-09-15T12:39:54.567Z,98220.59
2022-09-15T12:46:01.190Z,98232.56
2022-09-15T12:51:53.874Z,98245.03
2022-09-15T12:54:46.512Z,98244.63
2022-09-15T12:58:04.032Z,98238.88
2022-09-15T13:01:23.190Z,98231.19
2022-09-15T13:03:57.902Z,98241.84
2022-09-15T13:06:34.111Z,98235.69
2022-09-15T13:09:06.106Z,98236.44
2022-09-15T13:11:46.403Z,98241.78
2022-09-15T13:14:35.678Z,98235.16
2022-09-15T13:17:14.443Z,98240.19
2022-09-15T13:19:49.167Z,98243.16
2022-09-15T13:22:31.261Z,98233.91
2022-09-15T13:25:19.689Z,98239.84
2022-09-15T13:27:57.769Z,98235.63
2022-09-15T13:31:02.238Z,98232.22
2022-09-15T13:40:08.671Z,98225.06
2022-09-15T13:43:15.649Z,98236.31
2022-09-15T13:45:54.963Z,98233.28
2022-09-15T13:49:02.623Z,98238.25
2022-09-15T13:51:35.014Z,98238.69
2022-09-15T13:54:15.202Z,98238.06
2022-09-15T13:56:49.104Z,98238.97
2022-09-15T13:59:25.518Z,98232.72
2022-09-15T14:02:00.351Z,98230.69
2022-09-15T14:04:32.278Z,98233.00
2022-09-15T14:07:03.935Z,98228.66
2022-09-15T14:09:44.711Z,98225.69
2022-09-15T14:12:18.237Z,98224.78
2022-09-15T14:14:58.179Z,98220.41
2022-09-15T14:17:31.545Z,98226.97
2022-09-15T14:20:06.091Z,98223.31
2022-09-15T14:22:40.821Z,98227.69
2022-09-15T14:25:16.807Z,98231.72
2022-09-15T14:27:51.302Z,98228.50
2022-09-15T14:30:22.815Z,98231.97
2022-09-15T14:32:59.681Z,98226.72
2022-09-15T14:35:38.163Z,98215.88
2022-09-15T14:38:22.492Z,98222.09
2022-09-15T14:40:56.904Z,98218.47
2022-09-15T14:43:40.334Z,98219.25
2022-09-15T14:46:20.840Z,98230.59
2022-09-15T14:48:52.524Z,98238.22
2022-09-15T14:51:28.561Z,98233.75
2022-09-15T14:54:03.081Z,98231.00
2022-09-15T14:56:36.154Z,98231.63
2022-09-15T14:59:15.222Z,98230.41
2022-09-15T15:02:00.889Z,98225.44
2022-09-15T15:04:41.260Z,98219.44
2022-09-15T15:07:22.636Z,98224.88
2022-09-15T15:10:06.615Z,98221.44
2022-09-15T15:12:45.411Z,98224.28
2022-09-15T15:15:18.101Z,98224.56
2022-09-15T15:17:54.525Z,98234.31
2022-09-15T15:20:30.206Z,98222.19
2022-09-15T15:23:23.324Z,98217.91
2022-09-15T15:26:29.719Z,98212.81
2022-09-15T15:29:01.647Z,98213.03
2022-09-15T15:31:33.680Z,98209.06
2022-09-15T15:34:19.598Z,98210.06
2022-09-15T15:36:51.163Z,98217.66
2022-09-15T15:39:27.589Z,98221.06
2022-09-15T15:42:02.623Z,98220.03
2022-09-15T15:44:37.319Z,98206.16
2022-09-15T15:47:31.536Z,98209.41
2022-09-15T15:50:14.296Z,98213.63
2022-09-15T15:52:47.614Z,98205.69
2022-09-15T15:55:24.810Z,98208.66
2022-09-15T15:57:56.481Z,98210.28
2022-09-15T16:00:45.123Z,98209.97
2022-09-15T16:03:17.925Z,98221.41
2022-09-15T16:05:57.018Z,98225.09
2022-09-15T16:08:31.970Z,98215.75
2022-09-15T16:11:04.573Z,98215.50
2022-09-15T16:13:36.265Z,98220.44
2022-09-15T16:16:20.192Z,98224.56
2022-09-15T16:18:52.437Z,98210.63
2022-09-15T16:21:32.505Z,98226.00
2022-09-15T16:24:15.492Z,98228.44
2022-09-15T16:26:49.543Z,98222.13
2022-09-15T16:29:28.109Z,98231.19
2022-09-15T16:31:59.910Z,98228.19
2022-09-15T16:34:31.522Z,98238.56
2022-09-15T16:37:03.151Z,98241.16
2022-09-15T16:39:34.740Z,98239.31
2022-09-15T16:42:06.571Z,98236.88
2022-09-15T16:44:38.724Z,98232.03
2022-09-15T16:47:10.436Z,98228.78
2022-09-15T16:49:42.218Z,98227.16
2022-09-15T16:52:14.017Z,98239.72
2022-09-15T16:54:45.732Z,98235.44
2022-09-15T16:57:19.467Z,98235.44
2022-09-15T16:59:51.114Z,98239.91
2022-09-15T17:02:22.889Z,98233.34
2022-09-15T17:04:57.185Z,98241.28
2022-09-15T17:07:29.275Z,98229.16
2022-09-15T17:10:03.703Z,98235.81
2022-09-15T17:12:37.054Z,98249.88
2022-09-15T17:15:20.155Z,98242.59
2022-09-15T17:17:52.136Z,98246.00
2022-09-15T17:20:25.157Z,98251.50
2022-09-15T17:22:57.881Z,98256.53
2022-09-15T17:25:35.525Z,98260.25
2022-09-15T17:28:08.163Z,98262.34
2022-09-15T17:30:45.866Z,98259.69
2022-09-15T17:33:19.182Z,98263.31
2022-09-15T17:35:51.572Z,98265.09
2022-09-15T17:38:23.949Z,98268.25
2022-09-15T17:41:22.766Z,98277.63
2022-09-15T17:43:54.523Z,98282.16
2022-09-15T17:46:26.427Z,98273.81
2022-09-15T17:48:58.339Z,98277.44
2022-09-15T17:51:34.078Z,98289.06
2022-09-15T17:54:07.595Z,98294.31
2022-09-15T17:56:42.083Z,98292.81
2022-09-15T17:59:16.380Z,98298.88
2022-09-15T18:01:48.415Z,98290.56
2022-09-15T18:04:20.209Z,98304.13
2022-09-15T18:06:52.088Z,98300.41
2022-09-15T18:09:23.974Z,98300.06
2022-09-15T18:11:55.707Z,98304.03
2022-09-15T18:14:31.676Z,98315.19
2022-09-15T18:17:05.439Z,98317.03
2022-09-15T18:19:37.406Z,98314.63
2022-09-15T18:22:13.161Z,98319.59
2022-09-15T18:24:47.037Z,98317.75
2022-09-15T18:27:18.751Z,98322.03
2022-09-15T18:29:50.507Z,98323.09
2022-09-15T18:32:22.242Z,98325.75
2022-09-15T18:34:53.986Z,98332.38
2022-09-15T18:37:25.672Z,98344.44
2022-09-15T18:40:08.567Z,98342.09
2022-09-15T18:42:40.833Z,98337.25
2022-09-15T18:45:15.830Z,98346.66
2022-09-15T18:47:49.156Z,98338.47
2022-09-15T18:50:25.236Z,98347.44
2022-09-15T18:52:56.827Z,98340.19
2022-09-15T18:55:32.926Z,98346.13
2022-09-15T18:58:06.724Z,98351.78
2022-09-15T19:00:40.784Z,98351.34
2022-09-15T19:03:14.544Z,98357.25
2022-09-15T19:05:46.417Z,98349.47
2022-09-15T19:08:18.149Z,98352.28
2022-09-15T19:11:00.200Z,98357.84
2022-09-15T19:13:35.668Z,98357.53
2022-09-15T19:16:10.928Z,98361.72
2022-09-15T19:18:46.229Z,98361.13
2022-09-15T19:21:18.593Z,98355.56
2022-09-15T19:23:50.391Z,98362.66
2022-09-15T19:26:28.887Z,98370.41
2022-09-15T19:29:00.485Z,98365.66
2022-09-15T19:31:32.344Z,98369.72
2022-09-15T19:34:04.495Z,98372.50
2022-09-15T19:36:36.124Z,98372.50
2022-09-15T19:39:07.945Z,98367.16
2022-09-15T19:41:39.639Z,98372.50
2022-09-15T19:44:11.302Z,98363.91
2022-09-15T19:46:43.439Z,98373.44
2022-09-15T19:49:15.178Z,98374.59
2022-09-15T19:51:47.057Z,98378.78
2022-09-15T19:54:26.284Z,98381.78
2022-09-15T19:56:58.168Z,98390.03
2022-09-15T19:59:31.538Z,98389.44
2022-09-15T20:02:03.783Z,98393.47
2022-09-15T20:04:35.417Z,98396.72
2022-09-15T20:07:09.772Z,98394.88
2022-09-15T20:09:41.343Z,98401.59
2022-09-15T20:12:13.403Z,98405.47
2022-09-15T20:14:45.166Z,98399.56
2022-09-15T20:17:16.932Z,98404.66
2022-09-15T20:19:51.328Z,98401.41
2022-09-15T20:22:23.981Z,98407.78
2022-09-15T20:24:56.119Z,98405.13
2022-09-15T20:27:27.889Z,98415.25
2022-09-15T20:29:59.607Z,98417.09
2022-09-15T20:32:33.273Z,98411.38
2022-09-15T20:35:05.294Z,98424.63
2022-09-15T20:37:37.756Z,98425.00
2022-09-15T20:40:09.993Z,98422.88
2022-09-15T20:42:41.687Z,98420.69
2022-09-15T20:45:13.454Z,98428.91
2022-09-15T20:47:45.096Z,98425.09
2022-09-15T20:50:20.184Z,98431.88
2022-09-15T20:52:52.076Z,98436.50
2022-09-15T20:55:25.913Z,98442.50
2022-09-15T20:57:57.516Z,98441.13
2022-09-15T21:00:33.633Z,98448.31
2022-09-15T21:03:05.536Z,98450.84
2022-09-15T21:05:37.134Z,98459.63
2022-09-15T21:08:12.078Z,98448.34
2022-09-15T21:10:44.996Z,98456.41
2022-09-15T21:13:16.630Z,98458.34
2022-09-15T21:15:57.070Z,98455.34
2022-09-15T21:18:33.873Z,98457.19
2022-09-15T21:21:11.783Z,98454.00
2022-09-15T21:23:46.069Z,98458.69
2022-09-15T21:26:20.185Z,98463.34
2022-09-15T21:28:53.039Z,98462.88
2022-09-15T21:31:27.244Z,98458.13
2022-09-15T21:33:59.573Z,98467.88
2022-09-15T21:36:31.901Z,98469.63
2022-09-15T21:39:03.597Z,98474.06
2022-09-15T21:41:35.915Z,98478.81
2022-09-15T21:44:07.837Z,98481.16
2022-09-15T21:46:39.794Z,98489.38
2022-09-15T21:49:11.394Z,98491.31
2022-09-15T21:51:42.993Z,98492.97
2022-09-15T21:54:15.078Z,98494.03
2022-09-15T21:56:46.735Z,98490.63
2022-09-15T21:59:18.497Z,98489.03
2022-09-15T22:01:50.144Z,98492.38
2022-09-15T22:04:21.849Z,98498.31
2022-09-15T22:06:53.968Z,98495.91
2022-09-15T22:09:26.309Z,98498.78
2022-09-15T22:11:57.972Z,98500.38
2022-09-15T22:14:31.046Z,98499.56
2022-09-15T22:17:02.652Z,98503.28
2022-09-15T22:19:34.284Z,98509.59
2022-09-15T22:22:06.167Z,98504.50
2022-09-15T22:24:38.018Z,98511.25
2022-09-15T22:27:09.606Z,98513.69
2022-09-15T22:29:41.220Z,98516.97
2022-09-15T22:32:12.781Z,98515.13
2022-09-15T22:34:45.624Z,98515.31
2022-09-15T22:37:17.196Z,98510.44
2022-09-15T22:39:58.820Z,98502.88
2022-09-15T22:42:31.003Z,98501.69
2022-09-15T22:45:02.883Z,98510.25
2022-09-15T22:47:34.511Z,98503.13
2022-09-15T22:50:06.258Z,98508.63
2022-09-15T22:52:37.836Z,98509.66
2022-09-15T22:55:09.473Z,98513.53
2022-09-15T22:57:41.711Z,98509.47
2022-09-15T23:00:13.860Z,98507.00
2022-09-15T23:02:46.661Z,98506.81
2022-09-15T23:05:18.294Z,98501.50
2022-09-15T23:07:49.993Z,98504.16
2022-09-15T23:10:21.635Z,98502.72
2022-09-15T23:12:53.238Z,98504.38
2022-09-15T23:15:25.113Z,98512.59
2022-09-15T23:17:56.737Z,98515.44
2022-09-15T23:20:28.444Z,98519.50
2022-09-15T23:23:00.224Z,98514.41
2022-09-15T23:25:31.975Z,98518.91
2022-09-15T23:28:03.565Z,98511.53
2022-09-15T23:30:35.189Z,98508.88
2022-09-15T23:33:06.802Z,98516.25
2022-09-15T23:35:38.428Z,98513.59
2022-09-15T23:38:10.056Z,98514.19
2022-09-15T23:40:42.897Z,98505.41
2022-09-15T23:43:15.499Z,98513.16
2022-09-15T23:45:47.460Z,98511.53
2022-09-15T23:48:19.472Z,98507.84
2022-09-15T23:50:51.590Z,98508.03
2022-09-15T23:53:24.096Z,98506.63
2022-09-15T23:55:55.789Z,98506.63
2022-09-15T23:58:27.435Z,98512.75
